Terminal Aerodrome Forecast
Issued by NWS El Paso, TX

Home | Current Version | Previous Version | Text Only | Print | Product List | Glossary On
Versions: 1 2 3 4 5 6 7 8 9 10 11 12 13 14 15 16 17 18
000
FTUS44 KEPZ 180500
TAFELP
TAF
KELP 180522Z 1806/1906 VRB04KT P6SM -SHRA SCT012 BKN050
     FM180700 03010KT P6SM VCSH SCT010 BKN025
     FM181200 07008KT P6SM -SHRA SCT008 BKN020 OVC040
     FM181700 12010KT P6SM VCSH SCT015 BKN040
     FM190200 06011KT P6SM VCSH SCT025 BKN050=

USA.gov is the U.S. government's official web portal to all federal, state and local government web resources and services.